createdAt,value
2016-12-08T00:00:11.277Z,30.97
2016-12-08T00:01:20.272Z,30.95
2016-12-08T00:02:29.254Z,30.95
2016-12-08T00:03:39.198Z,30.97
2016-12-08T00:04:48.186Z,31.15
2016-12-08T00:05:58.104Z,31.05
2016-12-08T00:07:07.123Z,31.16
2016-12-08T00:08:15.799Z,31.05
2016-12-08T00:09:24.484Z,31.16
2016-12-08T00:10:33.171Z,31.15
2016-12-08T00:11:42.168Z,31.15
2016-12-08T00:12:50.857Z,31.24
2016-12-08T00:14:00.148Z,31.24
2016-12-08T00:15:08.820Z,31.15
2016-12-08T00:16:17.825Z,31.15
2016-12-08T00:17:26.521Z,31.24
2016-12-08T00:18:35.201Z,31.24
2016-12-08T00:19:44.195Z,31.43
2016-12-08T00:20:53.206Z,31.34
2016-12-08T00:22:02.222Z,31.43
2016-12-08T00:23:11.531Z,31.43
2016-12-08T00:24:20.261Z,31.53
2016-12-08T00:25:29.565Z,31.24
2016-12-08T00:26:39.195Z,31.34
2016-12-08T00:27:48.182Z,31.43
2016-12-08T00:28:57.190Z,31.43
2016-12-08T00:30:06.220Z,31.43
2016-12-08T00:31:14.954Z,31.43
2016-12-08T00:32:23.640Z,31.43
2016-12-08T00:33:32.648Z,31.43
2016-12-08T00:34:42.595Z,31.43
2016-12-08T00:35:51.607Z,31.53
2016-12-08T00:37:00.610Z,31.53
2016-12-08T00:38:09.592Z,31.53
2016-12-08T00:39:18.292Z,31.34
2016-12-08T00:40:27.270Z,31.53
2016-12-08T00:41:35.971Z,31.53
2016-12-08T00:42:45.570Z,31.43
2016-12-08T00:43:54.266Z,31.43
2016-12-08T00:45:03.272Z,31.53
2016-12-08T00:46:12.873Z,31.53
2016-12-08T00:47:21.909Z,31.43
2016-12-08T00:48:30.913Z,31.43
2016-12-08T00:49:39.933Z,31.43
2016-12-08T00:50:49.299Z,31.34
2016-12-08T00:51:58.603Z,31.43
2016-12-08T00:53:07.624Z,31.34
2016-12-08T00:54:16.634Z,31.34
2016-12-08T00:55:25.616Z,31.34
2016-12-08T00:56:34.913Z,31.34
2016-12-08T00:57:44.525Z,31.24
2016-12-08T00:58:53.855Z,31.24
2016-12-08T01:00:03.160Z,31.15
2016-12-08T01:01:12.464Z,31.15
2016-12-08T01:02:21.456Z,31.24
2016-12-08T01:03:30.192Z,31.24
2016-12-08T01:04:39.794Z,31.05
2016-12-08T01:05:49.103Z,31.24
2016-12-08T01:06:58.090Z,31.15
2016-12-08T01:08:07.084Z,31.05
2016-12-08T01:09:15.770Z,31.15
2016-12-08T01:10:25.077Z,31.05
2016-12-08T01:11:34.687Z,31.05
2016-12-08T01:12:43.385Z,31.15
2016-12-08T01:13:52.701Z,30.95
2016-12-08T01:15:02.004Z,30.95
2016-12-08T01:16:10.714Z,31.05
2016-12-08T01:17:20.007Z,31.05
2016-12-08T01:18:28.692Z,30.95
2016-12-08T01:19:37.681Z,31.05
2016-12-08T01:20:46.678Z,31.05
2016-12-08T01:21:56.001Z,31.06
2016-12-08T01:23:04.687Z,30.95
2016-12-08T01:24:13.687Z,31.06
2016-12-08T01:25:22.402Z,31.15
2016-12-08T01:26:31.399Z,31.06
2016-12-08T01:27:40.383Z,31.05
2016-12-08T01:28:49.685Z,31.15
2016-12-08T01:29:58.686Z,31.15
2016-12-08T01:31:08.017Z,31.15
2016-12-08T01:32:17.010Z,31.15
2016-12-08T01:33:26.614Z,31.15
2016-12-08T01:34:35.295Z,31.15
2016-12-08T01:35:44.289Z,31.15
2016-12-08T01:36:53.591Z,31.24
2016-12-08T01:38:02.578Z,31.24
2016-12-08T01:39:11.573Z,31.15
2016-12-08T01:40:20.905Z,31.05
2016-12-08T01:41:29.907Z,31.24
2016-12-08T01:42:39.521Z,31.34
2016-12-08T01:43:48.526Z,31.24
2016-12-08T01:44:57.213Z,31.34
2016-12-08T01:46:06.204Z,31.24
2016-12-08T01:47:14.886Z,31.34
2016-12-08T01:48:24.186Z,31.43
2016-12-08T01:49:33.180Z,31.34
2016-12-08T01:50:42.177Z,31.34
2016-12-08T01:51:51.161Z,31.34
2016-12-08T01:53:00.170Z,31.43
2016-12-08T01:54:09.190Z,31.43
2016-12-08T01:55:18.191Z,31.43
2016-12-08T01:56:27.174Z,31.43
2016-12-08T01:57:36.475Z,31.43
2016-12-08T01:58:45.158Z,31.53
2016-12-08T01:59:54.150Z,31.53
2016-12-08T02:01:03.446Z,31.53
2016-12-08T02:02:12.442Z,31.43
2016-12-08T02:03:21.439Z,31.62
2016-12-08T02:04:30.737Z,31.34
2016-12-08T02:05:39.424Z,31.53
2016-12-08T02:06:48.720Z,31.62
2016-12-08T02:07:57.724Z,31.62
2016-12-08T02:09:07.040Z,31.62
2016-12-08T02:10:15.724Z,31.53
2016-12-08T02:11:25.013Z,31.53
2016-12-08T02:12:34.379Z,31.53
2016-12-08T02:13:43.382Z,31.43
2016-12-08T02:14:52.681Z,31.53
2016-12-08T02:16:01.674Z,31.62
2016-12-08T02:17:11.276Z,31.62
2016-12-08T02:18:20.266Z,31.53
2016-12-08T02:19:29.263Z,31.53
2016-12-08T02:20:38.555Z,31.53
2016-12-08T02:21:47.235Z,31.61
2016-12-08T02:22:55.919Z,31.72
2016-12-08T02:24:05.555Z,31.43
2016-12-08T02:25:14.552Z,31.62
2016-12-08T02:26:23.540Z,31.53
2016-12-08T02:27:32.532Z,31.53
2016-12-08T02:28:41.210Z,31.62
2016-12-08T02:29:50.584Z,31.62
2016-12-08T02:30:59.259Z,31.53
2016-12-08T02:32:08.243Z,31.61
2016-12-08T02:33:16.925Z,31.72
2016-12-08T02:34:25.914Z,31.62
2016-12-08T02:35:35.821Z,31.51
2016-12-08T02:36:44.821Z,31.53
2016-12-08T02:37:53.817Z,31.7
2016-12-08T02:39:03.104Z,31.62
2016-12-08T02:40:12.112Z,31.62
2016-12-08T02:41:20.792Z,31.51
2016-12-08T02:42:30.399Z,31.53
2016-12-08T02:43:39.078Z,31.51
2016-12-08T02:44:48.706Z,31.51
2016-12-08T02:45:57.394Z,31.53
2016-12-08T02:47:06.707Z,31.51
2016-12-08T02:48:16.307Z,31.61
2016-12-08T02:49:25.292Z,31.72
2016-12-08T02:50:34.278Z,31.72
2016-12-08T02:51:43.273Z,31.8
2016-12-08T02:52:51.955Z,31.7
2016-12-08T02:54:00.948Z,31.72
2016-12-08T02:55:09.961Z,31.61
2016-12-08T02:56:19.583Z,31.7
2016-12-08T02:57:28.604Z,31.61
2016-12-08T02:58:37.910Z,31.61
2016-12-08T02:59:46.962Z,31.61
2016-12-08T03:00:55.944Z,31.7
2016-12-08T03:02:05.565Z,31.8
2016-12-08T03:03:14.869Z,31.7
2016-12-08T03:04:24.195Z,31.7
2016-12-08T03:05:32.870Z,31.7
2016-12-08T03:06:41.883Z,31.9
2016-12-08T03:07:51.181Z,31.7
2016-12-08T03:09:00.473Z,31.8
2016-12-08T03:10:10.069Z,31.61
2016-12-08T03:11:18.756Z,31.8
2016-12-08T03:12:27.760Z,31.7
2016-12-08T03:13:36.754Z,31.61
2016-12-08T03:14:46.055Z,31.61
2016-12-08T03:15:55.342Z,31.7
2016-12-08T03:17:04.639Z,31.53
2016-12-08T03:18:39.300Z,31.53
2016-12-08T03:19:48.287Z,31.61
2016-12-08T03:20:57.290Z,31.43
2016-12-08T03:22:06.280Z,31.53
2016-12-08T03:23:15.272Z,31.53
2016-12-08T03:24:23.953Z,31.34
2016-12-08T03:25:32.957Z,31.34
2016-12-08T03:26:42.251Z,31.15
2016-12-08T03:27:51.263Z,31.24
2016-12-08T03:29:00.258Z,31.15
2016-12-08T03:30:09.562Z,31.05
2016-12-08T03:31:18.847Z,30.95
2016-12-08T03:32:27.862Z,31.05
2016-12-08T03:33:36.846Z,30.85
2016-12-08T03:34:45.863Z,30.85
2016-12-08T03:35:55.153Z,30.76
2016-12-08T03:37:03.834Z,30.97
2016-12-08T03:38:12.837Z,30.85
2016-12-08T03:39:21.812Z,30.76
2016-12-08T03:40:31.099Z,30.68
2016-12-08T03:41:40.385Z,30.77
2016-12-08T03:42:49.094Z,30.57
2016-12-08T03:43:57.777Z,30.77
2016-12-08T03:45:06.771Z,30.77
2016-12-08T03:46:15.768Z,30.77
2016-12-08T03:47:25.078Z,30.68
2016-12-08T03:48:34.364Z,30.58
2016-12-08T03:49:43.049Z,30.58
2016-12-08T03:50:52.036Z,30.68
2016-12-08T03:52:01.352Z,30.77
2016-12-08T03:53:10.037Z,30.58
2016-12-08T03:54:19.345Z,30.77
2016-12-08T03:55:28.343Z,30.58
2016-12-08T03:56:37.013Z,30.68
2016-12-08T03:57:46.303Z,30.58
2016-12-08T03:58:55.907Z,30.87
2016-12-08T04:00:05.213Z,30.77
2016-12-08T04:01:14.191Z,30.68
2016-12-08T04:02:23.849Z,30.87
2016-12-08T04:03:32.835Z,30.97
2016-12-08T04:04:41.513Z,30.97
2016-12-08T04:05:50.204Z,30.87
2016-12-08T04:06:59.501Z,30.77
2016-12-08T04:08:08.499Z,30.77
2016-12-08T04:09:17.491Z,30.87
2016-12-08T04:10:27.105Z,30.87
2016-12-08T04:11:36.093Z,30.95
2016-12-08T04:12:45.685Z,30.85
2016-12-08T04:13:54.994Z,30.85
2016-12-08T04:15:03.983Z,30.95
2016-12-08T04:16:12.663Z,31.05
2016-12-08T04:17:21.347Z,31.06
2016-12-08T04:18:30.341Z,31.16
2016-12-08T04:19:39.034Z,31.16
2016-12-08T04:20:48.346Z,31.16
2016-12-08T04:21:57.022Z,31.16
2016-12-08T04:23:05.717Z,31.24
2016-12-08T04:24:15.044Z,31.24
2016-12-08T04:25:24.361Z,31.16
2016-12-08T04:26:33.661Z,31.05
2016-12-08T04:27:42.363Z,31.34
2016-12-08T04:28:51.664Z,31.34
2016-12-08T04:30:00.957Z,31.24
2016-12-08T04:31:09.957Z,31.43
2016-12-08T04:32:19.857Z,31.34
2016-12-08T04:33:28.558Z,31.34
2016-12-08T04:34:37.864Z,31.43
2016-12-08T04:35:46.541Z,31.43
2016-12-08T04:36:55.519Z,31.34
2016-12-08T04:38:04.833Z,31.53
2016-12-08T04:39:14.115Z,31.43
2016-12-08T04:40:23.410Z,31.43
2016-12-08T04:41:32.707Z,31.43
2016-12-08T04:42:41.690Z,31.43
2016-12-08T04:43:50.681Z,31.53
2016-12-08T04:44:59.968Z,31.34
2016-12-08T04:46:09.144Z,31.53
2016-12-08T04:47:18.523Z,31.43
2016-12-08T04:48:27.223Z,31.43
2016-12-08T04:49:36.513Z,31.62
2016-12-08T04:50:45.813Z,31.62
2016-12-08T04:51:54.506Z,31.62
2016-12-08T04:53:03.492Z,31.53
2016-12-08T04:54:12.540Z,31.53
2016-12-08T04:55:21.558Z,31.53
2016-12-08T04:56:30.577Z,31.43
2016-12-08T04:57:39.251Z,31.62
2016-12-08T04:58:48.548Z,31.53
2016-12-08T04:59:57.529Z,31.53
2016-12-08T05:01:06.838Z,31.53
2016-12-08T05:02:16.138Z,31.53
2016-12-08T05:03:25.151Z,31.62
2016-12-08T05:04:34.149Z,31.53
2016-12-08T05:05:42.823Z,31.43
2016-12-08T05:06:51.513Z,31.34
2016-12-08T05:08:00.512Z,31.43
2016-12-08T05:09:10.419Z,31.43
2016-12-08T05:10:19.410Z,31.43
2016-12-08T05:11:28.097Z,31.53
2016-12-08T05:12:37.141Z,31.43
2016-12-08T05:13:46.120Z,31.34
2016-12-08T05:14:55.141Z,31.43
2016-12-08T05:16:04.128Z,31.43
2016-12-08T05:17:12.806Z,31.34
2016-12-08T05:18:22.109Z,31.34
2016-12-08T05:19:31.127Z,31.24
2016-12-08T05:20:40.121Z,31.24
2016-12-08T05:21:49.778Z,31.15
2016-12-08T05:22:59.090Z,31.15
2016-12-08T05:24:07.791Z,31.15
2016-12-08T05:25:17.401Z,31.24
2016-12-08T05:26:26.093Z,31.24
2016-12-08T05:27:35.073Z,31.15
2016-12-08T05:28:44.382Z,31.16
2016-12-08T05:29:53.401Z,31.26
2016-12-08T05:31:02.097Z,31.15
2016-12-08T05:32:10.782Z,31.05
2016-12-08T05:33:19.777Z,31.15
2016-12-08T05:34:28.460Z,31.06
2016-12-08T05:35:37.146Z,31.06
2016-12-08T05:36:46.460Z,31.05
2016-12-08T05:37:55.456Z,30.87
2016-12-08T05:39:04.448Z,30.77
2016-12-08T05:40:13.431Z,30.87
2016-12-08T05:41:22.103Z,30.77
2016-12-08T05:42:31.093Z,30.49
2016-12-08T05:43:39.772Z,30.58
2016-12-08T05:44:48.766Z,30.58
2016-12-08T05:45:58.070Z,30.39
2016-12-08T05:47:07.065Z,30.29
2016-12-08T05:48:15.739Z,30.11
2016-12-08T05:49:24.431Z,30.21
2016-12-08T05:50:33.716Z,30.02
2016-12-08T05:51:43.012Z,30.21
2016-12-08T05:52:51.991Z,30.21
2016-12-08T05:54:01.595Z,29.83
2016-12-08T05:55:10.579Z,29.83
2016-12-08T05:56:19.906Z,29.83
2016-12-08T05:57:28.883Z,29.93
2016-12-08T05:58:37.567Z,29.35
2016-12-08T05:59:46.247Z,29.54
2016-12-08T06:00:55.539Z,29.74
2016-12-08T06:02:04.531Z,29.27
2016-12-08T06:03:14.141Z,29.36
2016-12-08T06:04:23.138Z,29.74
2016-12-08T06:05:31.831Z,29.17
2016-12-08T06:06:40.825Z,29.27
2016-12-08T06:07:49.828Z,29.55
2016-12-08T06:08:59.124Z,29.46
2016-12-08T06:10:08.758Z,29.36
2016-12-08T06:11:18.063Z,29.07
2016-12-08T06:12:27.361Z,29.07
2016-12-08T06:13:36.058Z,29.18
2016-12-08T06:14:45.352Z,29.08
2016-12-08T06:15:54.340Z,29.28
2016-12-08T06:17:03.372Z,28.8
2016-12-08T06:18:12.055Z,29.57
2016-12-08T06:19:21.040Z,28.89
2016-12-08T06:20:29.722Z,28.99
2016-12-08T06:21:38.710Z,28.99
2016-12-08T06:22:47.380Z,28.99
2016-12-08T06:23:56.383Z,29.08
2016-12-08T06:25:05.382Z,28.99
2016-12-08T06:26:14.091Z,29.08
2016-12-08T06:27:23.072Z,28.91
2016-12-08T06:28:32.671Z,28.62
2016-12-08T06:29:41.967Z,28.81
2016-12-08T06:30:50.641Z,28.62
2016-12-08T06:31:59.369Z,28.62
2016-12-08T06:33:08.664Z,28.72
2016-12-08T06:34:17.662Z,28.52
2016-12-08T06:35:26.343Z,28.62
2016-12-08T06:36:35.027Z,28.72
2016-12-08T06:37:44.324Z,28.62
2016-12-08T06:38:53.002Z,28.53
2016-12-08T06:40:01.991Z,28.34
2016-12-08T06:41:10.975Z,28.44
2016-12-08T06:42:19.657Z,28.34
2016-12-08T06:43:28.367Z,28.44
2016-12-08T06:44:37.654Z,28.34
2016-12-08T06:45:46.345Z,28.34
2016-12-08T06:46:55.631Z,28.34
2016-12-08T06:48:04.931Z,28.44
2016-12-08T06:49:13.931Z,28.44
2016-12-08T06:50:23.236Z,28.25
2016-12-08T06:51:32.520Z,28.15
2016-12-08T06:52:41.626Z,28.34
2016-12-08T06:53:50.323Z,28.44
2016-12-08T06:54:59.341Z,28.34
2016-12-08T06:56:08.029Z,28.44
2016-12-08T06:57:16.716Z,28.34
2016-12-08T06:58:25.385Z,28.36
2016-12-08T06:59:34.373Z,28.44
2016-12-08T07:00:43.661Z,28.44
2016-12-08T07:01:52.338Z,28.63
2016-12-08T07:03:01.324Z,28.63
2016-12-08T07:04:10.614Z,28.53
2016-12-08T07:05:20.838Z,28.83
2016-12-08T07:06:29.842Z,28.53
2016-12-08T07:07:38.531Z,28.53
2016-12-08T07:08:47.821Z,28.92
2016-12-08T07:09:56.813Z,28.92
2016-12-08T07:11:06.712Z,28.92
2016-12-08T07:12:16.014Z,29.02
2016-12-08T07:13:25.619Z,29.02
2016-12-08T07:14:34.318Z,28.92
2016-12-08T07:15:43.614Z,28.92
2016-12-08T07:16:52.595Z,29.31
2016-12-08T07:18:01.577Z,29.31
2016-12-08T07:19:10.559Z,29.2
2016-12-08T07:20:19.572Z,29.31
2016-12-08T07:21:28.873Z,29.29
2016-12-08T07:22:37.853Z,29.39
2016-12-08T07:23:46.876Z,29.49
2016-12-08T07:24:56.486Z,29.2
2016-12-08T07:26:05.465Z,29.68
2016-12-08T07:27:14.450Z,29.39
2016-12-08T07:28:23.134Z,29.68
2016-12-08T07:29:31.811Z,29.68
2016-12-08T07:30:40.806Z,29.49
2016-12-08T07:31:49.497Z,29.97
2016-12-08T07:32:58.495Z,29.77
2016-12-08T07:34:08.106Z,29.87
2016-12-08T07:35:17.751Z,29.87
2016-12-08T07:36:26.746Z,30.34
2016-12-08T07:37:35.742Z,30.24
2016-12-08T07:38:44.471Z,30.15
2016-12-08T07:39:53.767Z,30.05
2016-12-08T07:41:03.070Z,30.15
2016-12-08T07:42:12.091Z,30.15
2016-12-08T07:43:21.077Z,30.15
2016-12-08T07:44:29.772Z,30.53
2016-12-08T07:45:38.770Z,30.43
2016-12-08T07:46:47.495Z,30.43
2016-12-08T07:47:56.490Z,30.34
2016-12-08T07:49:05.795Z,30.53
2016-12-08T07:50:16.020Z,30.52
2016-12-08T07:51:25.626Z,30.63
2016-12-08T07:52:34.943Z,30.61
2016-12-08T07:53:43.629Z,30.71
2016-12-08T07:54:52.641Z,30.8
2016-12-08T07:56:01.331Z,30.71
2016-12-08T07:57:10.640Z,30.61
2016-12-08T07:58:19.632Z,30.71
2016-12-08T07:59:28.332Z,30.9
2016-12-08T08:00:37.331Z,30.9
2016-12-08T08:01:46.012Z,30.9
2016-12-08T08:02:55.317Z,30.71
2016-12-08T08:04:04.959Z,30.8
2016-12-08T08:05:14.286Z,31
2016-12-08T08:06:23.284Z,30.9
2016-12-08T08:07:32.589Z,30.9
2016-12-08T08:08:41.594Z,31
2016-12-08T08:09:50.899Z,31
2016-12-08T08:10:59.920Z,31
2016-12-08T08:12:09.518Z,31
2016-12-08T08:13:18.207Z,30.98
2016-12-08T08:14:27.185Z,31
2016-12-08T08:15:35.896Z,31.09
2016-12-08T08:16:45.511Z,31.09
2016-12-08T08:17:54.498Z,31.27
2016-12-08T08:19:03.493Z,31.09
2016-12-08T08:20:12.789Z,31.19
2016-12-08T08:21:22.087Z,31.27
2016-12-08T08:22:30.771Z,31.18
2016-12-08T08:23:40.078Z,31.08
2016-12-08T08:24:48.774Z,31.18
2016-12-08T08:25:58.378Z,31.18
2016-12-08T08:27:07.667Z,31.27
2016-12-08T08:28:16.657Z,31.18
2016-12-08T08:29:25.350Z,31.08
2016-12-08T08:30:34.650Z,31.18
2016-12-08T08:31:43.959Z,31.18
2016-12-08T08:32:53.596Z,31.27
2016-12-08T08:34:02.595Z,31.18
2016-12-08T08:35:11.344Z,31.27
2016-12-08T08:36:20.462Z,31.27
2016-12-08T08:37:29.751Z,31.18
2016-12-08T08:38:39.067Z,31.46
2016-12-08T08:39:48.104Z,31.37
2016-12-08T08:40:57.418Z,31.46
2016-12-08T08:42:06.096Z,31.37
2016-12-08T08:43:15.084Z,31.37
2016-12-08T08:44:24.078Z,31.37
2016-12-08T08:45:32.770Z,31.46
2016-12-08T08:46:41.467Z,31.56
2016-12-08T08:47:50.462Z,31.27
2016-12-08T08:48:59.149Z,31.37
2016-12-08T08:50:08.141Z,31.46
2016-12-08T08:51:17.173Z,31.46
2016-12-08T08:52:25.875Z,31.37
2016-12-08T08:53:35.477Z,31.46
2016-12-08T08:54:44.169Z,31.46
2016-12-08T08:55:53.480Z,31.37
2016-12-08T08:57:02.167Z,31.37
2016-12-08T08:58:10.868Z,31.27
2016-12-08T08:59:19.867Z,31.37
2016-12-08T09:00:29.193Z,31.27
2016-12-08T09:01:38.196Z,31.37
2016-12-08T09:02:46.871Z,31.37
2016-12-08T09:03:55.856Z,31.27
2016-12-08T09:05:04.536Z,31.46
2016-12-08T09:06:13.225Z,31.37
2016-12-08T09:07:22.223Z,31.37
2016-12-08T09:08:31.216Z,31.27
2016-12-08T09:09:40.528Z,31.37
2016-12-08T09:10:49.530Z,31.18
2016-12-08T09:11:58.851Z,31.46
2016-12-08T09:13:07.848Z,31.18
2016-12-08T09:14:16.861Z,31.18
2016-12-08T09:15:25.842Z,31.27
2016-12-08T09:16:34.849Z,31.37
2016-12-08T09:17:43.535Z,31.08
2016-12-08T09:18:52.534Z,31.18
2016-12-08T09:20:02.147Z,31.18
2016-12-08T09:21:11.454Z,31.27
2016-12-08T09:22:20.447Z,31.18
2016-12-08T09:23:29.433Z,31.27
2016-12-08T09:24:38.129Z,31.18
2016-12-08T09:25:47.128Z,31.18
2016-12-08T09:26:55.827Z,31.37
2016-12-08T09:28:04.847Z,31.18
2016-12-08T09:29:13.534Z,31.08
2016-12-08T09:30:22.535Z,31.18
2016-12-08T09:31:31.858Z,31.08
2016-12-08T09:32:40.850Z,31.08
2016-12-08T09:33:49.854Z,31.08
2016-12-08T09:34:58.534Z,31.08
2016-12-08T09:36:07.220Z,31.18
2016-12-08T09:37:15.900Z,31.18
2016-12-08T09:38:24.581Z,31.08
2016-12-08T09:39:33.365Z,31.08
2016-12-08T09:40:42.368Z,31.18
2016-12-08T09:41:51.980Z,30.98
2016-12-08T09:43:00.682Z,30.98
2016-12-08T09:44:09.715Z,31.08
2016-12-08T09:45:18.410Z,30.98
2016-12-08T09:46:27.425Z,31.08
2016-12-08T09:47:36.124Z,30.98
2016-12-08T09:48:45.729Z,30.98
2016-12-08T09:49:55.639Z,30.98
2016-12-08T09:51:04.962Z,31.08
2016-12-08T09:52:13.651Z,31.18
2016-12-08T09:53:22.693Z,30.98
2016-12-08T09:54:31.988Z,31.18
2016-12-08T09:55:41.293Z,31.08
2016-12-08T09:56:50.302Z,31.18
2016-12-08T09:57:59.902Z,30.98
2016-12-08T09:59:08.594Z,31.08
2016-12-08T10:00:17.899Z,31.08
2016-12-08T10:01:26.596Z,31.08
2016-12-08T10:02:35.583Z,31.08
2016-12-08T10:03:44.270Z,31.08
2016-12-08T10:04:53.569Z,31.08
2016-12-08T10:06:02.560Z,31.08
2016-12-08T10:07:11.536Z,31.08
2016-12-08T10:08:20.206Z,30.88
2016-12-08T10:09:29.223Z,30.79
2016-12-08T10:10:38.222Z,30.98
2016-12-08T10:11:47.210Z,30.88
2016-12-08T10:12:56.237Z,31.08
2016-12-08T10:14:05.227Z,30.88
2016-12-08T10:15:14.532Z,30.88
2016-12-08T10:16:23.526Z,30.88
2016-12-08T10:17:32.514Z,31.08
2016-12-08T10:18:41.810Z,31.08
2016-12-08T10:19:51.099Z,30.98
2016-12-08T10:20:59.790Z,30.88
2016-12-08T10:22:08.809Z,30.88
2016-12-08T10:23:17.513Z,30.79
2016-12-08T10:24:26.816Z,30.88
2016-12-08T10:25:35.517Z,30.69
2016-12-08T10:26:44.514Z,30.69
2016-12-08T10:27:53.508Z,30.88
2016-12-08T10:29:02.500Z,30.69
2016-12-08T10:30:11.802Z,30.88
2016-12-08T10:31:20.778Z,30.69
2016-12-08T10:32:29.779Z,30.88
2016-12-08T10:33:38.781Z,30.79
2016-12-08T10:34:47.774Z,30.88
2016-12-08T10:35:56.760Z,30.79
2016-12-08T10:37:05.446Z,30.88
2016-12-08T10:38:14.132Z,30.88
2016-12-08T10:39:23.133Z,30.98
2016-12-08T10:40:31.807Z,30.88
2016-12-08T10:41:41.407Z,30.98
2016-12-08T10:42:51.011Z,30.88
2016-12-08T10:44:00.020Z,30.88
2016-12-08T10:45:09.006Z,30.88
2016-12-08T10:46:18.007Z,30.79
2016-12-08T10:47:26.696Z,30.79
2016-12-08T10:48:35.435Z,30.88
2016-12-08T10:49:44.431Z,30.79
2016-12-08T10:50:53.430Z,30.79
2016-12-08T10:52:02.731Z,30.79
2016-12-08T10:53:11.437Z,30.69
2016-12-08T10:54:20.444Z,30.79
2016-12-08T10:55:29.744Z,30.69
2016-12-08T10:56:39.047Z,30.68
2016-12-08T10:57:48.376Z,30.79
2016-12-08T10:58:57.976Z,30.79
2016-12-08T11:00:06.975Z,30.79
2016-12-08T11:01:15.977Z,30.79
2016-12-08T11:02:25.333Z,30.69
2016-12-08T11:03:34.327Z,30.5
2016-12-08T11:04:43.321Z,30.6
2016-12-08T11:05:52.317Z,30.69
2016-12-08T11:07:01.629Z,30.6
2016-12-08T11:08:10.932Z,30.69
2016-12-08T11:09:20.568Z,30.79
2016-12-08T11:10:29.567Z,30.79
2016-12-08T11:11:38.567Z,30.69
2016-12-08T11:12:47.894Z,30.69
2016-12-08T11:13:56.915Z,30.6
2016-12-08T11:15:06.252Z,30.79
2016-12-08T11:16:15.856Z,30.79
2016-12-08T11:17:25.753Z,30.69
2016-12-08T11:18:35.049Z,30.6
2016-12-08T11:19:44.047Z,30.79
2016-12-08T11:20:53.346Z,30.79
2016-12-08T11:22:02.054Z,30.79
2016-12-08T11:23:11.037Z,30.69
2016-12-08T11:24:19.733Z,30.69
2016-12-08T11:25:28.407Z,30.79
2016-12-08T11:26:37.443Z,30.69
2016-12-08T11:27:47.050Z,30.69
2016-12-08T11:28:56.055Z,30.79
2016-12-08T11:30:05.068Z,30.69
2016-12-08T11:31:13.759Z,30.69
2016-12-08T11:32:22.752Z,30.69
2016-12-08T11:33:32.359Z,30.6
2016-12-08T11:34:41.047Z,30.79
2016-12-08T11:35:50.061Z,30.69
2016-12-08T11:36:59.664Z,30.6
2016-12-08T11:38:08.968Z,30.69
2016-12-08T11:39:17.965Z,30.69
2016-12-08T11:40:26.663Z,30.69
2016-12-08T11:41:36.055Z,30.6
2016-12-08T11:42:45.059Z,30.79
2016-12-08T11:43:53.797Z,30.69
2016-12-08T11:45:03.116Z,30.69
2016-12-08T11:46:12.100Z,30.6
2016-12-08T11:47:21.101Z,30.69
2016-12-08T11:48:30.730Z,30.69
2016-12-08T11:49:39.437Z,30.69
2016-12-08T11:50:48.755Z,30.6
2016-12-08T11:51:57.774Z,30.6
2016-12-08T11:53:06.472Z,30.68
2016-12-08T11:54:15.461Z,30.58
2016-12-08T11:55:24.470Z,30.58
2016-12-08T11:56:33.487Z,30.58
2016-12-08T11:57:42.514Z,30.6
2016-12-08T11:58:51.517Z,30.69
2016-12-08T12:00:00.212Z,30.68
2016-12-08T12:01:08.908Z,30.58
2016-12-08T12:02:17.607Z,30.6
2016-12-08T12:03:26.603Z,30.68
2016-12-08T12:04:35.590Z,30.69
2016-12-08T12:05:44.921Z,30.69
2016-12-08T12:06:54.239Z,30.69
2016-12-08T12:08:03.229Z,30.69
2016-12-08T12:09:12.538Z,30.68
2016-12-08T12:10:21.532Z,30.69
2016-12-08T12:11:30.916Z,30.69
2016-12-08T12:12:40.226Z,30.68
2016-12-08T12:13:49.518Z,30.69
2016-12-08T12:14:58.517Z,30.6
2016-12-08T12:16:07.209Z,30.69
2016-12-08T12:17:16.206Z,30.69
2016-12-08T12:18:24.893Z,30.58
2016-12-08T12:19:33.893Z,30.58
2016-12-08T12:20:42.880Z,30.69
2016-12-08T12:21:51.560Z,30.58
2016-12-08T12:23:00.241Z,30.58
2016-12-08T12:24:10.135Z,30.58
2016-12-08T12:25:19.133Z,30.68
2016-12-08T12:26:27.841Z,30.68
2016-12-08T12:27:36.841Z,30.68
2016-12-08T12:28:45.840Z,30.68
2016-12-08T12:29:54.530Z,30.58
2016-12-08T12:31:03.850Z,30.68
2016-12-08T12:32:13.470Z,30.49
2016-12-08T12:33:22.464Z,30.68
2016-12-08T12:34:31.462Z,30.6
2016-12-08T12:35:40.461Z,30.29
2016-12-08T12:36:49.774Z,30.4
2016-12-08T12:37:58.778Z,30.58
2016-12-08T12:39:07.845Z,30.4
2016-12-08T12:40:16.541Z,30.5
2016-12-08T12:41:25.226Z,30.5
2016-12-08T12:42:34.835Z,30.29
2016-12-08T12:43:44.138Z,30.4
2016-12-08T12:44:52.842Z,30.39
2016-12-08T12:46:01.835Z,30.39
2016-12-08T12:47:11.443Z,30.69
2016-12-08T12:48:20.463Z,30.19
2016-12-08T12:49:29.766Z,30.31
2016-12-08T12:50:38.449Z,30.31
2016-12-08T12:51:47.151Z,30.31
2016-12-08T12:52:55.825Z,30.31
2016-12-08T12:54:04.522Z,30.29
2016-12-08T12:55:13.840Z,30.4
2016-12-08T12:56:22.520Z,30.4
2016-12-08T12:57:31.515Z,30.19
2016-12-08T12:58:40.241Z,30.31
2016-12-08T12:59:49.251Z,30.19
2016-12-08T13:00:58.234Z,30.29
2016-12-08T13:02:08.151Z,30.21
2016-12-08T13:03:17.149Z,30.29
2016-12-08T13:04:26.140Z,30.29
2016-12-08T13:05:35.165Z,30.31
2016-12-08T13:06:44.182Z,30.39
2016-12-08T13:07:53.485Z,30.39
2016-12-08T13:09:02.483Z,30.4
2016-12-08T13:10:11.173Z,30.39
2016-12-08T13:11:20.179Z,30.39
2016-12-08T13:12:28.890Z,30.31
2016-12-08T13:13:37.882Z,30.39
2016-12-08T13:14:47.206Z,30.4
2016-12-08T13:15:56.204Z,30.39
2016-12-08T13:17:04.909Z,30.31
2016-12-08T13:18:13.593Z,30.39
2016-12-08T13:19:22.596Z,30.29
2016-12-08T13:20:31.583Z,30.39
2016-12-08T13:21:40.584Z,30.1
2016-12-08T13:22:49.593Z,30.29
2016-12-08T13:23:58.918Z,30.1
2016-12-08T13:25:07.633Z,30.19
2016-12-08T13:26:16.926Z,30.29
2016-12-08T13:27:25.632Z,30.1
2016-12-08T13:28:34.635Z,30.39
2016-12-08T13:29:43.339Z,30.29
2016-12-08T13:30:52.635Z,30.19
2016-12-08T13:32:02.236Z,30.29
2016-12-08T13:33:10.940Z,30.29
2016-12-08T13:34:20.265Z,30.39
2016-12-08T13:38:01.619Z,30.49
2016-12-08T13:39:10.931Z,30.49
2016-12-08T13:40:20.246Z,30.19
2016-12-08T13:41:29.588Z,30.39
2016-12-08T13:42:38.635Z,30.29
2016-12-08T13:43:47.622Z,30.58
2016-12-08T13:44:56.304Z,30.49
2016-12-08T13:46:04.993Z,30.49
2016-12-08T13:47:13.683Z,30.49
2016-12-08T13:48:22.671Z,30.68
2016-12-08T13:49:31.986Z,30.49
2016-12-08T13:50:41.003Z,30.58
2016-12-08T13:51:49.677Z,30.58
2016-12-08T13:52:58.981Z,30.68
2016-12-08T13:54:07.982Z,30.68
2016-12-08T13:55:17.598Z,30.29
2016-12-08T13:56:26.296Z,30.58
2016-12-08T13:57:35.608Z,30.39
2016-12-08T13:58:44.597Z,30.58
2016-12-08T13:59:53.303Z,30.49
2016-12-08T14:01:02.618Z,30.19
2016-12-08T14:02:11.361Z,30.68
2016-12-08T14:03:20.058Z,30.49
2016-12-08T14:04:28.735Z,30.39
2016-12-08T14:05:37.432Z,30.58
2016-12-08T14:06:46.743Z,30.68
2016-12-08T14:07:56.047Z,30.19
2016-12-08T14:09:05.076Z,30.58
2016-12-08T14:10:13.757Z,30.49
2016-12-08T14:11:23.061Z,30.39
2016-12-08T14:12:32.052Z,30.68
2016-12-08T14:13:40.761Z,30.49
2016-12-08T14:14:49.744Z,30.58
2016-12-08T14:15:58.722Z,30.58
2016-12-08T14:17:08.346Z,30.58
2016-12-08T14:18:17.489Z,30.68
2016-12-08T14:19:27.117Z,30.68
2016-12-08T14:20:35.807Z,30.68
2016-12-08T14:21:44.805Z,30.58
2016-12-08T14:22:54.421Z,30.58
2016-12-08T14:24:03.122Z,30.68
2016-12-08T14:25:11.804Z,30.68
2016-12-08T14:26:21.101Z,30.68
2016-12-08T14:27:30.424Z,30.58
2016-12-08T14:28:39.139Z,30.58
2016-12-08T14:29:48.126Z,30.58
2016-12-08T14:30:57.428Z,30.58
2016-12-08T14:32:06.735Z,30.58
2016-12-08T14:33:15.408Z,30.58
2016-12-08T14:34:25.028Z,30.58
2016-12-08T14:35:34.029Z,30.68
2016-12-08T14:36:43.661Z,30.68
2016-12-08T14:37:52.966Z,30.68
2016-12-08T14:39:01.964Z,30.68
2016-12-08T14:40:10.652Z,30.68
2016-12-08T14:41:19.943Z,30.68
2016-12-08T14:42:29.265Z,30.58
2016-12-08T14:43:38.042Z,30.58
2016-12-08T14:44:47.342Z,30.58
2016-12-08T14:45:56.043Z,30.66
2016-12-08T14:47:04.748Z,30.68
2016-12-08T14:48:13.749Z,30.58
2016-12-08T14:49:22.456Z,30.57
2016-12-08T14:50:31.188Z,30.57
2016-12-08T14:51:39.866Z,30.66
2016-12-08T14:52:48.861Z,30.57
2016-12-08T14:53:57.555Z,30.76